createdAt,value
2022-08-30T00:02:50.626Z,12.63
2022-08-30T00:05:52.314Z,12.60
2022-08-30T00:08:58.272Z,12.63
2022-08-30T00:11:59.937Z,12.59
2022-08-30T00:15:01.822Z,12.56
2022-08-30T00:18:03.407Z,12.50
2022-08-30T00:21:05.181Z,12.47
2022-08-30T00:24:06.769Z,12.49
2022-08-30T00:27:08.485Z,12.49
2022-08-30T00:30:10.301Z,12.46
2022-08-30T00:33:11.916Z,12.48
2022-08-30T00:36:13.571Z,12.47
2022-08-30T00:39:15.166Z,12.40
2022-08-30T00:42:17.544Z,12.38
2022-08-30T00:45:21.490Z,12.39
2022-08-30T00:48:23.472Z,12.37
2022-08-30T00:51:26.273Z,12.31
2022-08-30T00:54:28.335Z,12.26
2022-08-30T00:57:30.709Z,12.23
2022-08-30T01:00:32.386Z,12.24
2022-08-30T01:03:34.121Z,12.23
2022-08-30T01:06:36.086Z,12.24
2022-08-30T01:09:37.665Z,12.22
2022-08-30T01:12:39.251Z,12.21
2022-08-30T01:15:41.781Z,12.18
2022-08-30T01:18:43.608Z,12.21
2022-08-30T01:21:47.050Z,12.22
2022-08-30T01:24:48.598Z,12.21
2022-08-30T01:28:10.405Z,12.23
2022-08-30T01:31:13.286Z,12.22
2022-08-30T01:34:14.871Z,12.25
2022-08-30T01:37:18.019Z,12.34
2022-08-30T01:40:19.995Z,12.30
2022-08-30T01:43:21.578Z,12.34
2022-08-30T01:46:24.485Z,12.33
2022-08-30T01:49:27.898Z,12.26
2022-08-30T01:52:30.166Z,12.25
2022-08-30T01:55:32.439Z,12.23
2022-08-30T01:58:34.805Z,12.25
2022-08-30T02:01:37.246Z,12.24
2022-08-30T02:04:38.907Z,12.24
2022-08-30T02:07:40.496Z,12.20
2022-08-30T02:10:42.086Z,12.16
2022-08-30T02:13:44.249Z,12.13
2022-08-30T02:16:46.416Z,12.15
2022-08-30T02:19:48.022Z,12.13
2022-08-30T02:22:49.671Z,12.16
2022-08-30T02:25:51.235Z,12.19
2022-08-30T02:28:53.129Z,12.14
2022-08-30T02:31:54.719Z,12.13
2022-08-30T02:34:56.310Z,12.15
2022-08-30T02:37:57.987Z,12.14
2022-08-30T02:40:59.593Z,12.15
2022-08-30T02:44:01.290Z,12.13
2022-08-30T02:47:03.021Z,12.12
2022-08-30T02:50:05.564Z,12.05
2022-08-30T02:53:07.247Z,11.97
2022-08-30T02:56:11.734Z,11.84
2022-08-30T02:59:13.660Z,11.61
2022-08-30T03:02:15.385Z,11.40
2022-08-30T03:05:17.294Z,11.17
2022-08-30T03:08:18.905Z,10.95
2022-08-30T03:11:22.402Z,10.79
2022-08-30T03:14:25.509Z,10.65
2022-08-30T03:17:27.108Z,10.46
2022-08-30T03:20:28.751Z,10.28
2022-08-30T03:23:30.301Z,10.19
2022-08-30T03:26:31.877Z,9.98
2022-08-30T03:29:33.681Z,9.77
2022-08-30T03:32:35.386Z,9.66
2022-08-30T03:35:36.958Z,9.54
2022-08-30T03:38:38.870Z,9.40
2022-08-30T03:41:40.494Z,9.26
2022-08-30T03:44:42.904Z,9.19
2022-08-30T03:47:44.646Z,9.21
2022-08-30T03:50:46.281Z,9.24
2022-08-30T03:53:47.863Z,9.23
2022-08-30T03:56:49.445Z,9.24
2022-08-30T03:59:51.182Z,9.24
2022-08-30T04:02:52.752Z,9.25
2022-08-30T04:05:55.365Z,9.24
2022-08-30T04:08:56.937Z,9.19
2022-08-30T04:12:00.233Z,9.15
2022-08-30T04:15:02.082Z,9.15
2022-08-30T04:18:03.689Z,9.10
2022-08-30T04:21:05.559Z,9.09
2022-08-30T04:24:07.342Z,9.04
2022-08-30T04:27:09.151Z,8.95
2022-08-30T04:30:12.150Z,8.92
2022-08-30T04:33:13.883Z,8.93
2022-08-30T04:36:15.465Z,8.92
2022-08-30T04:39:19.894Z,8.85
2022-08-30T04:42:21.576Z,8.83
2022-08-30T04:45:23.182Z,8.82
2022-08-30T04:48:24.866Z,8.79
2022-08-30T04:51:26.442Z,8.76
2022-08-30T04:54:28.573Z,8.74
2022-08-30T04:57:30.192Z,8.80
2022-08-30T05:00:32.007Z,8.78
2022-08-30T05:03:33.599Z,8.71
2022-08-30T05:06:35.285Z,8.74
2022-08-30T05:09:37.706Z,8.75
2022-08-30T05:12:39.736Z,8.74
2022-08-30T05:15:41.386Z,8.75
2022-08-30T05:18:43.511Z,8.82
2022-08-30T05:21:45.541Z,8.95
2022-08-30T05:24:47.125Z,9.07
2022-08-30T05:27:48.931Z,9.09
2022-08-30T05:30:50.509Z,9.05
2022-08-30T05:33:52.825Z,9.06
2022-08-30T05:36:54.482Z,9.16
2022-08-30T05:39:56.719Z,9.18
2022-08-30T05:42:58.372Z,9.15
2022-08-30T05:46:01.032Z,9.12
2022-08-30T05:49:03.386Z,9.24
2022-08-30T05:52:05.363Z,9.25
2022-08-30T05:55:07.783Z,9.28
2022-08-30T05:58:09.434Z,9.37
2022-08-30T06:01:21.281Z,9.46
2022-08-30T06:04:22.893Z,9.49
2022-08-30T06:07:24.454Z,9.55
2022-08-30T06:10:26.052Z,9.65
2022-08-30T06:13:27.635Z,9.73
2022-08-30T06:16:29.317Z,9.80
2022-08-30T06:19:30.952Z,9.87
2022-08-30T06:22:32.549Z,9.96
2022-08-30T06:25:41.356Z,9.99
2022-08-30T06:28:43.846Z,10.00
2022-08-30T06:31:45.646Z,10.06
2022-08-30T06:34:48.374Z,10.10
2022-08-30T06:37:49.945Z,10.12
2022-08-30T06:40:51.556Z,10.15
2022-08-30T06:43:53.326Z,10.21
2022-08-30T06:46:54.990Z,10.26
2022-08-30T06:49:57.223Z,10.32
2022-08-30T06:53:04.470Z,10.48
2022-08-30T06:56:07.745Z,10.60
2022-08-30T06:59:09.365Z,10.73
2022-08-30T07:02:11.199Z,10.84
2022-08-30T07:05:17.994Z,10.98
2022-08-30T07:08:20.637Z,11.11
2022-08-30T07:11:28.419Z,11.23
2022-08-30T07:14:30.282Z,11.34
2022-08-30T07:17:50.606Z,11.49
2022-08-30T07:20:52.234Z,11.61
2022-08-30T07:23:54.506Z,11.70
2022-08-30T07:26:56.077Z,11.85
2022-08-30T07:29:58.876Z,11.97
2022-08-30T07:33:00.691Z,12.12
2022-08-30T07:36:02.395Z,12.24
2022-08-30T07:39:04.586Z,12.36
2022-08-30T07:42:06.613Z,12.38
2022-08-30T07:45:08.902Z,12.43
2022-08-30T07:48:12.651Z,12.61
2022-08-30T07:51:19.534Z,12.74
2022-08-30T07:54:21.154Z,12.89
2022-08-30T07:57:22.893Z,13.15
2022-08-30T08:00:25.074Z,13.25
2022-08-30T08:03:26.846Z,13.32
2022-08-30T08:06:29.779Z,13.33
2022-08-30T08:09:37.317Z,13.43
2022-08-30T08:12:39.196Z,13.76
2022-08-30T08:15:40.828Z,13.87
2022-08-30T08:18:42.457Z,13.94
2022-08-30T08:21:44.006Z,13.89
2022-08-30T08:24:46.069Z,13.60
2022-08-30T08:27:48.980Z,13.40
2022-08-30T08:30:50.698Z,13.49
2022-08-30T08:33:52.403Z,13.40
2022-08-30T08:36:54.129Z,13.59
2022-08-30T08:39:55.813Z,13.74
2022-08-30T08:43:05.654Z,13.66
2022-08-30T08:46:07.220Z,13.60
2022-08-30T08:49:11.147Z,13.84
2022-08-30T08:52:37.266Z,14.18
2022-08-30T08:55:40.886Z,14.16
2022-08-30T08:58:44.238Z,13.94
2022-08-30T09:01:46.076Z,14.12
2022-08-30T09:04:47.666Z,14.81
2022-08-30T09:07:52.223Z,15.27
2022-08-30T09:10:56.953Z,15.98
2022-08-30T09:13:58.553Z,15.81
2022-08-30T09:20:33.749Z,16.38
2022-08-30T09:23:35.328Z,16.53
2022-08-30T09:26:38.100Z,16.62
2022-08-30T09:29:43.621Z,16.60
2022-08-30T09:32:53.226Z,16.63
2022-08-30T09:35:55.876Z,16.64
2022-08-30T09:39:01.691Z,17.04
2022-08-30T09:42:14.109Z,17.05
2022-08-30T09:45:20.346Z,17.55
2022-08-30T09:48:37.704Z,17.55
2022-08-30T09:51:40.871Z,16.99
2022-08-30T09:55:04.385Z,16.71
2022-08-30T09:58:11.166Z,16.89
2022-08-30T10:01:15.610Z,17.11
2022-08-30T10:04:32.358Z,17.30
2022-08-30T10:07:39.945Z,17.37
2022-08-30T10:10:50.487Z,17.40
2022-08-30T10:13:56.401Z,17.70
2022-08-30T10:17:11.312Z,17.99
2022-08-30T10:20:30.525Z,18.13
2022-08-30T10:23:33.089Z,17.85
2022-08-30T10:26:45.625Z,18.02
2022-08-30T10:29:49.706Z,18.35
2022-08-30T10:32:53.536Z,18.72
2022-08-30T10:35:57.050Z,19.01
2022-08-30T10:38:58.599Z,18.52
2022-08-30T10:42:02.464Z,17.87
2022-08-30T10:45:06.021Z,17.40
2022-08-30T10:48:16.662Z,17.20
2022-08-30T10:51:29.222Z,17.09
2022-08-30T10:54:35.144Z,17.15
2022-08-30T10:57:37.107Z,17.50
2022-08-30T11:00:50.681Z,17.95
2022-08-30T11:03:55.537Z,18.25
2022-08-30T11:07:20.652Z,18.33
2022-08-30T11:10:26.040Z,18.64
2022-08-30T11:13:29.762Z,19.04
2022-08-30T11:16:38.075Z,18.46
2022-08-30T11:19:39.935Z,18.42
2022-08-30T11:22:42.423Z,18.91
2022-08-30T11:26:03.092Z,19.56
2022-08-30T11:29:04.993Z,20.44
2022-08-30T11:32:15.893Z,19.98
2022-08-30T11:35:36.847Z,19.53
2022-08-30T11:38:38.404Z,18.81
2022-08-30T11:41:42.589Z,18.05
2022-08-30T11:44:44.807Z,18.13
2022-08-30T11:47:48.479Z,18.23
2022-08-30T11:50:52.622Z,18.76
2022-08-30T11:54:06.454Z,19.56
2022-08-30T11:57:20.015Z,20.09
2022-08-30T12:00:30.647Z,20.50
2022-08-30T12:03:35.929Z,19.60
2022-08-30T12:06:40.970Z,18.83
2022-08-30T12:09:45.439Z,18.25
2022-08-30T12:12:47.784Z,18.67
2022-08-30T12:15:54.990Z,19.61
2022-08-30T12:19:00.244Z,20.49
2022-08-30T12:22:06.078Z,21.05
2022-08-30T12:25:16.010Z,20.17
2022-08-30T12:28:22.536Z,19.43
2022-08-30T12:31:25.907Z,19.68
2022-08-30T12:34:29.033Z,20.05
2022-08-30T12:37:30.573Z,19.93
2022-08-30T12:40:34.526Z,19.72
2022-08-30T12:43:40.163Z,20.16
2022-08-30T12:46:43.748Z,19.43
2022-08-30T12:49:46.383Z,19.76
2022-08-30T12:52:59.105Z,19.80
2022-08-30T12:56:07.006Z,19.93
2022-08-30T12:59:09.928Z,19.50
2022-08-30T13:02:20.353Z,19.77
2022-08-30T13:05:42.970Z,20.09
2022-08-30T13:08:46.773Z,20.07
2022-08-30T13:11:48.663Z,19.98
2022-08-30T13:14:50.462Z,20.21
2022-08-30T13:18:12.472Z,20.07
2022-08-30T13:21:24.977Z,19.83
2022-08-30T13:24:27.059Z,19.89
2022-08-30T13:27:29.394Z,19.50
2022-08-30T13:30:31.563Z,19.53
2022-08-30T13:33:33.173Z,19.51
2022-08-30T13:36:36.073Z,19.71
2022-08-30T13:39:38.495Z,19.76
2022-08-30T13:42:43.008Z,19.87
2022-08-30T13:45:44.630Z,20.07
2022-08-30T13:48:46.362Z,20.37
2022-08-30T13:52:09.487Z,20.16
2022-08-30T13:55:10.114Z,19.69
2022-08-30T13:58:13.302Z,19.47
2022-08-30T14:01:15.662Z,19.79
2022-08-30T14:04:18.181Z,20.50
2022-08-30T14:07:20.921Z,20.50
2022-08-30T14:10:32.586Z,20.18
2022-08-30T14:13:36.916Z,19.82
2022-08-30T14:16:42.299Z,21.22
2022-08-30T14:19:43.937Z,21.85
2022-08-30T14:22:45.476Z,20.78
2022-08-30T14:25:48.984Z,19.81
2022-08-30T14:28:52.357Z,19.46
2022-08-30T14:31:54.053Z,19.23
2022-08-30T14:34:55.685Z,20.08
2022-08-30T14:37:57.361Z,21.66
2022-08-30T14:40:58.930Z,21.13
2022-08-30T14:44:02.563Z,21.15
2022-08-30T14:47:04.949Z,22.15
2022-08-30T14:50:06.845Z,22.42
2022-08-30T14:53:08.627Z,23.41
2022-08-30T14:56:11.214Z,23.54
2022-08-30T14:59:13.390Z,23.22
2022-08-30T15:02:15.465Z,22.32
2022-08-30T15:05:17.495Z,22.44
2022-08-30T15:08:19.296Z,21.13
2022-08-30T15:11:22.088Z,20.48
2022-08-30T15:14:24.286Z,19.96
2022-08-30T15:17:26.022Z,19.67
2022-08-30T15:20:27.634Z,20.87
2022-08-30T15:23:29.225Z,22.18
2022-08-30T15:26:31.305Z,22.98
2022-08-30T15:29:33.125Z,23.11
2022-08-30T15:32:34.675Z,22.69
2022-08-30T15:35:36.337Z,21.91
2022-08-30T15:38:38.846Z,22.29
2022-08-30T15:41:43.800Z,22.65
2022-08-30T15:44:46.492Z,23.42
2022-08-30T15:47:48.408Z,24.20
2022-08-30T15:50:56.766Z,23.88
2022-08-30T15:53:58.583Z,23.17
2022-08-30T15:57:00.314Z,22.84
2022-08-30T16:00:06.452Z,24.00
2022-08-30T16:03:10.062Z,24.62
2022-08-30T16:06:12.689Z,24.97
2022-08-30T16:09:14.298Z,25.41
2022-08-30T16:12:22.480Z,25.04
2022-08-30T16:15:25.689Z,24.84
2022-08-30T16:18:27.572Z,24.97
2022-08-30T16:21:30.486Z,25.26
2022-08-30T16:24:32.319Z,25.04
2022-08-30T16:27:35.014Z,24.81
2022-08-30T16:30:36.933Z,24.58
2022-08-30T16:33:43.053Z,24.86
2022-08-30T16:36:45.673Z,24.55
2022-08-30T16:39:47.392Z,24.70
2022-08-30T16:42:50.223Z,23.63
2022-08-30T16:45:52.342Z,23.33
2022-08-30T16:48:56.371Z,23.47
2022-08-30T16:51:58.010Z,24.06
2022-08-30T16:55:00.938Z,23.65
2022-08-30T16:58:04.733Z,23.19
2022-08-30T17:01:06.353Z,22.92
2022-08-30T17:04:08.321Z,22.47
2022-08-30T17:07:13.802Z,22.55
2022-08-30T17:10:16.673Z,22.56
2022-08-30T17:13:25.007Z,22.60
2022-08-30T17:16:28.080Z,20.50
2022-08-30T17:19:30.373Z,21.05
2022-08-30T17:22:32.400Z,21.89
2022-08-30T17:25:34.239Z,22.12
2022-08-30T17:28:35.862Z,21.98
2022-08-30T17:31:38.869Z,22.42
2022-08-30T17:34:40.703Z,22.39
2022-08-30T17:37:42.622Z,21.89
2022-08-30T17:40:44.420Z,21.69
2022-08-30T17:43:46.541Z,21.29
2022-08-30T17:46:48.392Z,21.24
2022-08-30T17:49:50.032Z,21.33
2022-08-30T17:52:52.558Z,21.47
2022-08-30T17:55:55.118Z,21.54
2022-08-30T17:58:56.767Z,21.13
2022-08-30T18:01:59.179Z,21.28
2022-08-30T18:05:00.905Z,21.10
2022-08-30T18:08:02.675Z,21.08
2022-08-30T18:11:05.932Z,20.76
2022-08-30T18:14:08.095Z,20.13
2022-08-30T18:17:12.809Z,19.64
2022-08-30T18:20:14.762Z,19.50
2022-08-30T18:23:17.750Z,19.08
2022-08-30T18:26:19.555Z,18.77
2022-08-30T18:29:30.438Z,18.75
2022-08-30T18:32:36.213Z,18.54
2022-08-30T18:35:47.444Z,17.49
2022-08-30T18:38:50.084Z,16.31
2022-08-30T18:41:54.400Z,15.48
2022-08-30T18:44:58.465Z,15.09
2022-08-30T18:48:14.425Z,14.64
2022-08-30T18:51:17.481Z,14.37
2022-08-30T18:54:19.190Z,14.20
2022-08-30T18:57:22.077Z,14.03
2022-08-30T19:00:23.729Z,13.86
2022-08-30T19:03:25.321Z,13.74
2022-08-30T19:06:26.971Z,13.59
2022-08-30T19:09:28.610Z,13.35
2022-08-30T19:12:30.472Z,13.19
2022-08-30T19:15:34.107Z,13.05
2022-08-30T19:18:36.994Z,12.91
2022-08-30T19:21:38.542Z,12.81
2022-08-30T19:24:40.207Z,12.67
2022-08-30T19:27:41.950Z,12.36
2022-08-30T19:30:43.853Z,11.94
2022-08-30T19:33:45.420Z,11.58
2022-08-30T19:36:47.753Z,11.30
2022-08-30T19:39:49.387Z,11.14
2022-08-30T19:42:51.623Z,10.99
2022-08-30T19:45:56.439Z,10.69
2022-08-30T19:48:58.533Z,10.53
2022-08-30T19:52:00.125Z,10.43
2022-08-30T19:55:02.979Z,10.45
2022-08-30T19:58:04.715Z,10.43
2022-08-30T20:01:10.838Z,10.48
2022-08-30T20:04:15.769Z,10.57
2022-08-30T20:07:25.258Z,10.45
2022-08-30T20:10:29.169Z,10.23
2022-08-30T20:13:33.615Z,10.11
2022-08-30T20:16:37.844Z,10.11
2022-08-30T20:19:39.785Z,10.21
2022-08-30T20:22:41.347Z,10.23
2022-08-30T20:25:53.353Z,10.01
2022-08-30T20:28:54.985Z,9.85
2022-08-30T20:31:57.008Z,9.64
2022-08-30T20:34:59.158Z,9.58
2022-08-30T20:38:06.320Z,9.56
2022-08-30T20:41:11.704Z,9.55
2022-08-30T20:44:15.086Z,9.63
2022-08-30T20:47:17.457Z,9.60
2022-08-30T20:50:19.247Z,9.53
2022-08-30T20:53:20.799Z,9.48
2022-08-30T20:56:22.552Z,9.44
2022-08-30T20:59:24.188Z,9.45
2022-08-30T21:02:25.928Z,9.53
2022-08-30T21:05:27.565Z,9.59
2022-08-30T21:08:29.245Z,9.61
2022-08-30T21:11:31.100Z,9.66
2022-08-30T21:14:32.693Z,9.74
2022-08-30T21:17:34.301Z,9.75
2022-08-30T21:20:36.094Z,9.71
2022-08-30T21:23:37.742Z,9.75
2022-08-30T21:26:40.437Z,9.70
2022-08-30T21:29:42.152Z,9.71
2022-08-30T21:32:43.745Z,9.72
2022-08-30T21:36:04.053Z,9.69
2022-08-30T21:39:06.470Z,9.67
2022-08-30T21:42:09.054Z,9.65
2022-08-30T21:45:10.762Z,9.61
2022-08-30T21:48:12.674Z,9.68
2022-08-30T21:51:14.358Z,9.65
2022-08-30T21:54:16.537Z,9.66
2022-08-30T21:57:18.358Z,9.61
2022-08-30T22:00:21.061Z,9.59
2022-08-30T22:03:22.675Z,9.53
2022-08-30T22:06:30.605Z,9.47
2022-08-30T22:09:33.001Z,9.45
2022-08-30T22:12:34.913Z,9.50
2022-08-30T22:15:39.155Z,9.48
2022-08-30T22:18:41.159Z,9.44
2022-08-30T22:21:43.805Z,9.47
2022-08-30T22:24:45.439Z,9.51
2022-08-30T22:27:47.097Z,9.51
2022-08-30T22:30:48.982Z,9.56
2022-08-30T22:33:51.255Z,9.62
2022-08-30T22:36:52.873Z,9.73
2022-08-30T22:39:54.773Z,9.84
2022-08-30T22:42:56.358Z,9.96
2022-08-30T22:45:58.089Z,10.05
2022-08-30T22:48:59.802Z,10.18
2022-08-30T22:52:01.362Z,10.14
2022-08-30T22:55:04.243Z,10.13
2022-08-30T22:58:05.879Z,10.09
2022-08-30T23:01:07.620Z,10.04
2022-08-30T23:04:09.416Z,9.95
2022-08-30T23:07:11.021Z,9.92
2022-08-30T23:10:12.975Z,9.93
2022-08-30T23:13:14.521Z,9.93
2022-08-30T23:16:16.324Z,9.91
2022-08-30T23:19:18.667Z,9.92
2022-08-30T23:22:20.321Z,9.91
2022-08-30T23:25:41.659Z,9.88
2022-08-30T23:29:04.688Z,9.87
2022-08-30T23:32:24.871Z,9.86
2022-08-30T23:35:45.198Z,9.89
2022-08-30T23:39:05.504Z,9.87
2022-08-30T23:42:25.772Z,9.81
2022-08-30T23:45:46.053Z,9.77
2022-08-30T23:49:06.233Z,9.75
2022-08-30T23:52:26.522Z,9.68
2022-08-30T23:55:46.538Z,9.63
2022-08-30T23:59:06.393Z,9.58
